createdAt,value
2023-06-26T00:02:29.586Z,21.44
2023-06-26T00:07:29.588Z,21.25
2023-06-26T00:12:29.578Z,21.24
2023-06-26T00:17:29.592Z,20.97
2023-06-26T00:22:29.582Z,20.81
2023-06-26T00:27:29.596Z,20.7
2023-06-26T00:32:29.598Z,20.7
2023-06-26T00:37:29.600Z,20.57
2023-06-26T00:42:29.602Z,20.42
2023-06-26T00:47:29.592Z,20.36
2023-06-26T00:52:29.606Z,20.31
2023-06-26T00:57:29.596Z,20.28
2023-06-26T01:02:29.610Z,20.24
2023-06-26T01:07:29.611Z,20.12
2023-06-26T01:12:29.661Z,20.04
2023-06-26T01:17:29.615Z,19.95
2023-06-26T01:22:29.605Z,19.94
2023-06-26T01:27:29.619Z,19.93
2023-06-26T01:32:29.621Z,19.96
2023-06-26T01:37:29.623Z,19.95
2023-06-26T01:42:29.633Z,20
2023-06-26T01:47:29.615Z,19.93
2023-06-26T01:52:29.629Z,19.84
2023-06-26T01:57:29.619Z,19.84
2023-06-26T02:02:29.632Z,19.79
2023-06-26T02:07:29.634Z,19.81
2023-06-26T02:12:29.636Z,19.62
2023-06-26T02:22:29.628Z,19.39
2023-06-26T02:27:29.641Z,19.4
2023-06-26T02:32:29.632Z,19.37
2023-06-26T02:37:29.645Z,19.35
2023-06-26T02:42:29.647Z,19.29
2023-06-26T02:47:29.637Z,19.18
2023-06-26T02:52:29.651Z,19.12
2023-06-26T02:57:29.640Z,19.11
2023-06-26T03:02:29.654Z,19.03
2023-06-26T03:07:29.656Z,18.83
2023-06-26T03:12:29.657Z,18.75
2023-06-26T03:17:29.660Z,18.84
2023-06-26T03:22:29.650Z,18.84
2023-06-26T03:27:29.663Z,18.9
2023-06-26T03:32:29.653Z,18.98
2023-06-26T03:37:29.666Z,18.91
2023-06-26T03:42:29.669Z,18.95
2023-06-26T03:47:29.658Z,19
2023-06-26T03:52:29.673Z,18.96
2023-06-26T03:57:29.662Z,19.06
2023-06-26T04:02:29.675Z,19.12
2023-06-26T04:07:29.666Z,19.18
2023-06-26T04:12:29.679Z,19.2
2023-06-26T04:17:29.682Z,19.4
2023-06-26T04:22:29.671Z,19.67
2023-06-26T04:27:29.685Z,19.74
2023-06-26T04:32:29.675Z,19.81
2023-06-26T04:37:29.688Z,19.89
2023-06-26T04:42:29.690Z,20.2
2023-06-26T04:47:29.702Z,20.59
2023-06-26T04:52:29.695Z,20.76
2023-06-26T04:57:29.684Z,20.91
2023-06-26T05:02:29.697Z,21.23
2023-06-26T05:07:29.688Z,21.58
2023-06-26T05:12:29.701Z,21.86
2023-06-26T05:17:29.704Z,22.19
2023-06-26T05:22:29.694Z,22.53
2023-06-26T05:27:29.708Z,22.85
2023-06-26T05:32:29.698Z,23.2
2023-06-26T05:37:29.711Z,23.5
2023-06-26T05:42:29.715Z,23.87
2023-06-26T05:47:29.716Z,24.16
2023-06-26T05:52:29.719Z,24.58
2023-06-26T05:57:29.709Z,24.94
2023-06-26T06:02:29.723Z,25.22
2023-06-26T06:07:29.714Z,25.57
2023-06-26T06:12:29.727Z,25.96
2023-06-26T06:17:29.729Z,26.38
2023-06-26T06:22:29.720Z,26.71
2023-06-26T06:27:29.735Z,27.13
2023-06-26T06:32:29.724Z,27.56
2023-06-26T06:37:29.739Z,27.95
2023-06-26T06:42:29.742Z,28.24
2023-06-26T06:47:29.744Z,28.6
2023-06-26T06:52:29.747Z,28.96
2023-06-26T06:57:29.738Z,29.12
2023-06-26T07:02:29.752Z,29.42
2023-06-26T07:07:29.743Z,29.71
2023-06-26T07:12:29.781Z,29.81
2023-06-26T07:17:29.760Z,30.11
2023-06-26T07:22:29.762Z,30.23
2023-06-26T07:27:29.766Z,30.53
2023-06-26T07:32:29.756Z,30.78
2023-06-26T07:37:29.770Z,30.98
2023-06-26T07:42:29.762Z,31.29
2023-06-26T07:47:46.253Z,31.39
2023-06-26T07:52:29.787Z,31.67
2023-06-26T08:02:29.786Z,31.97
2023-06-26T08:07:29.775Z,32.13
2023-06-26T08:12:29.789Z,32.24
2023-06-26T08:17:29.793Z,32.87
2023-06-26T08:22:29.794Z,32.91
2023-06-26T08:27:29.798Z,33.12
2023-06-26T08:32:29.789Z,33.21
2023-06-26T08:37:29.803Z,33.21
2023-06-26T08:42:29.795Z,39.32
2023-06-26T08:47:29.809Z,42.57
2023-06-26T08:52:29.813Z,43.99
2023-06-26T08:57:29.804Z,43.51
2023-06-26T09:02:29.819Z,43.3
2023-06-26T09:07:29.810Z,44.47
2023-06-26T09:12:29.824Z,43.68
2023-06-26T09:17:29.827Z,43.69
2023-06-26T09:22:29.830Z,44.11
2023-06-26T09:27:29.834Z,43.78
2023-06-26T09:32:29.825Z,43.79
2023-06-26T09:37:29.839Z,43.78
2023-06-26T09:42:29.830Z,43.94
2023-06-26T09:47:29.845Z,44.23
2023-06-26T09:52:29.849Z,43.37
2023-06-26T09:57:29.839Z,43.75
2023-06-26T10:02:29.855Z,43.91
2023-06-26T10:07:29.846Z,44.83
2023-06-26T10:12:29.860Z,45.04
2023-06-26T10:17:29.852Z,43.66
2023-06-26T10:22:29.866Z,43.16
2023-06-26T10:27:29.870Z,43.47
2023-06-26T10:32:29.862Z,42.83
2023-06-26T10:37:29.901Z,42.92
2023-06-26T10:42:29.868Z,43.85
2023-06-26T10:47:29.882Z,43.82
2023-06-26T10:52:29.886Z,42.78
2023-06-26T10:57:29.888Z,42.91
2023-06-26T11:02:29.892Z,41.27
2023-06-26T11:07:29.883Z,40.7
2023-06-26T11:12:29.897Z,41.13
2023-06-26T11:17:29.889Z,38.91
2023-06-26T11:22:29.904Z,38.72
2023-06-26T11:27:29.908Z,39.31
2023-06-26T11:32:29.899Z,41.07
2023-06-26T11:37:29.914Z,42.29
2023-06-26T11:42:29.905Z,43.15
2023-06-26T11:47:29.919Z,40.18
2023-06-26T11:52:29.922Z,41.86
2023-06-26T11:57:29.927Z,43.48
2023-06-26T12:07:29.920Z,44.6
2023-06-26T12:12:29.934Z,44.11
2023-06-26T12:17:29.926Z,44.67
2023-06-26T12:22:29.940Z,44.12
2023-06-26T12:27:29.943Z,42.65
2023-06-26T12:32:29.935Z,42.35
2023-06-26T12:37:29.950Z,41.9
2023-06-26T12:42:29.941Z,41.31
2023-06-26T12:47:29.956Z,40.18
2023-06-26T12:52:29.960Z,39.31
2023-06-26T12:57:29.962Z,37.81
2023-06-26T13:02:29.967Z,39.37
2023-06-26T13:07:29.957Z,39.62
2023-06-26T13:12:29.972Z,41.6
2023-06-26T13:17:29.963Z,41.8
2023-06-26T13:22:30.001Z,41.7
2023-06-26T13:27:29.981Z,41.74
2023-06-26T13:32:29.971Z,42.2
2023-06-26T13:37:29.987Z,41.88
2023-06-26T13:42:29.988Z,41.3
2023-06-26T13:47:29.992Z,41.77
2023-06-26T13:52:29.984Z,41.18
2023-06-26T13:57:29.999Z,42.42
2023-06-26T14:02:30.003Z,42.15
2023-06-26T14:07:29.994Z,40.86
2023-06-26T14:12:30.009Z,41.01
2023-06-26T14:17:30.000Z,39.75
2023-06-26T14:22:30.014Z,38.63
2023-06-26T14:27:30.016Z,39.66
2023-06-26T14:32:30.020Z,39.84
2023-06-26T14:37:30.024Z,39.41
2023-06-26T14:42:30.015Z,38.29
2023-06-26T14:47:30.030Z,37.8
2023-06-26T14:52:30.021Z,37.05
2023-06-26T14:57:30.035Z,37.41
2023-06-26T15:02:30.037Z,37.53
2023-06-26T15:07:30.029Z,38.64
2023-06-26T15:12:30.045Z,37.79
2023-06-26T15:17:30.036Z,36.99
2023-06-26T15:22:30.051Z,37.2
2023-06-26T15:27:46.530Z,37.58
2023-06-26T15:32:30.057Z,37.37
2023-06-26T15:37:30.061Z,36.86
2023-06-26T15:42:30.052Z,36.22
2023-06-26T15:47:30.065Z,35.41
2023-06-26T15:52:30.058Z,35.18
2023-06-26T15:57:30.071Z,35.15
2023-06-26T16:02:30.075Z,35.25
2023-06-26T16:07:30.067Z,34.78
2023-06-26T16:12:30.081Z,34.78
2023-06-26T16:17:30.072Z,34.81
2023-06-26T16:22:30.085Z,34.49
2023-06-26T16:27:30.078Z,34.53
2023-06-26T16:32:30.091Z,34.34
2023-06-26T16:37:30.094Z,35.2
2023-06-26T16:42:30.087Z,35.12
2023-06-26T16:47:30.102Z,34.78
2023-06-26T16:52:30.093Z,33.91
2023-06-26T16:57:30.106Z,33.32
2023-06-26T17:02:30.109Z,33.09
2023-06-26T17:07:30.112Z,32.79
2023-06-26T17:12:30.117Z,32.4
2023-06-26T17:17:30.107Z,32.25
2023-06-26T17:22:30.121Z,31.82
2023-06-26T17:27:30.113Z,31.48
2023-06-26T17:32:30.126Z,31.13
2023-06-26T17:37:30.129Z,31.1
2023-06-26T17:42:30.121Z,31.16
2023-06-26T17:47:30.136Z,31.08
2023-06-26T17:52:30.127Z,31.12
2023-06-26T17:57:30.140Z,30.95
2023-06-26T18:02:30.142Z,30.41
2023-06-26T18:07:30.145Z,30.32
2023-06-26T18:12:30.150Z,30.16
2023-06-26T18:17:30.141Z,29.92
2023-06-26T18:22:30.179Z,29.6
2023-06-26T18:27:30.146Z,29.38
2023-06-26T18:32:30.159Z,29.14
2023-06-26T18:37:30.161Z,28.99
2023-06-26T18:42:30.230Z,28.78
2023-06-26T18:47:30.169Z,28.62
2023-06-26T18:52:30.159Z,28.44
2023-06-26T18:57:30.172Z,28.17
2023-06-26T19:02:30.164Z,27.96
2023-06-26T19:07:30.177Z,27.78
2023-06-26T19:12:30.180Z,27.58
2023-06-26T19:17:30.172Z,27.44
2023-06-26T19:22:30.187Z,27.31
2023-06-26T19:27:30.177Z,27.23
2023-06-26T19:32:30.190Z,27.11
2023-06-26T19:37:30.192Z,27
2023-06-26T19:42:30.195Z,26.89
2023-06-26T19:47:30.199Z,26.78
2023-06-26T19:52:30.190Z,26.71
2023-06-26T19:57:30.202Z,26.6
2023-06-26T20:02:30.194Z,26.48
2023-06-26T20:07:30.208Z,26.39
2023-06-26T20:12:30.209Z,26.36
2023-06-26T20:17:30.202Z,26.28
2023-06-26T20:22:30.216Z,26.21
2023-06-26T20:27:30.689Z,26.19
2023-06-26T20:32:30.219Z,26.05
2023-06-26T20:37:30.223Z,25.94
2023-06-26T20:42:30.224Z,25.87
2023-06-26T20:47:30.228Z,25.78
2023-06-26T20:52:30.219Z,25.7
2023-06-26T20:57:30.231Z,25.64
2023-06-26T21:02:30.224Z,25.52
2023-06-26T21:07:30.236Z,25.47
2023-06-26T21:12:30.238Z,25.41
2023-06-26T21:17:30.265Z,25.33
2023-06-26T21:22:30.245Z,25.27
2023-06-26T21:27:36.677Z,25.19
2023-06-26T21:32:30.248Z,25.16
2023-06-26T21:37:30.250Z,25.07
2023-06-26T21:42:30.252Z,24.99
2023-06-26T21:47:30.265Z,24.97
2023-06-26T21:52:30.247Z,24.88
2023-06-26T21:57:30.261Z,24.86
2023-06-26T22:02:30.252Z,24.84
2023-06-26T22:07:30.264Z,24.83
2023-06-26T22:12:30.267Z,24.8
2023-06-26T22:17:30.269Z,24.81
2023-06-26T22:22:30.273Z,24.7
2023-06-26T22:27:42.679Z,24.8
2023-06-26T22:32:30.276Z,24.76
2023-06-26T22:37:30.268Z,24.73
2023-06-26T22:42:30.280Z,24.72
2023-06-26T22:47:30.283Z,24.65
2023-06-26T22:52:30.275Z,24.58
2023-06-26T22:57:30.289Z,24.52
2023-06-26T23:02:30.280Z,24.49
2023-06-26T23:07:30.292Z,24.44
2023-06-26T23:12:46.771Z,24.35
2023-06-26T23:17:30.296Z,24.34
2023-06-26T23:22:30.301Z,24.36
2023-06-26T23:27:48.695Z,24.43
2023-06-26T23:32:30.303Z,24.43
2023-06-26T23:37:30.296Z,24.46
2023-06-26T23:42:30.308Z,24.52
2023-06-26T23:47:30.311Z,24.42
2023-06-26T23:52:30.302Z,24.47
2023-06-26T23:57:30.317Z,24.42
